Long Beach, North Carolina
Current Conditions -  °F | °C
As of 6:35 PM on Thursday 18 Dec 2014 (Local Time) from KSUT Reporting Station
Clear Clear  
Wind Chill: 44°   Ceiling: Unl
Heat Index: 44°   Visibility: 10mi
Dew Point: 39°   Wind: 0mph
Humidity: 82%   Direction: NA
Pressure: 30.1"   Gusts: NA
Location:  33.9216°N, 78.1244°W
Report Text: KSUT 182335Z AUTO 00000KT 10SM CLR 07/04 A3010 RMK AO2 T00670038
Loading
Personal Weather Stations






























Interactive Weather Map New forecast layout! Learn more

10-Day Weather Forecast

Advertisements
Track Severe Weather on mobile